Time;durP1;ratioP1;P1;durP2;ratioP2;P2;SDS_P1;SDS_P2;PMS_P1;PMS_P2;Temp;Humidity;BMP_temperature;BMP_pressure;BME280_temperature;BME280_humidity;BME280_pressure;Samples;Min_cycle;Max_cycle;Signal;HPM_P1;HPM_P2
2023/05/13 00:00:26;;;;;;;7.65;2.10;;;17.50;99.90;;;;;;5041377;28;20031;-62
2023/05/13 00:02:53;;;;;;;6.03;2.25;;;17.50;99.90;;;;;;5029108;28;20060;-63
2023/05/13 00:05:21;;;;;;;7.35;2.47;;;17.60;99.90;;;;;;5028307;28;20032;-59
2023/05/13 00:07:49;;;;;;;5.10;2.53;;;17.80;99.90;;;;;;5046462;28;20056;-60
2023/05/13 00:10:16;;;;;;;4.78;2.55;;;17.90;99.90;;;;;;5026761;28;20040;-61
2023/05/13 00:12:44;;;;;;;5.22;2.92;;;18.10;99.90;;;;;;5026317;28;20483;-61
2023/05/13 00:15:11;;;;;;;5.28;2.13;;;18.20;99.90;;;;;;5057440;28;20052;-61
2023/05/13 00:17:39;;;;;;;8.93;2.35;;;18.30;99.90;;;;;;5041361;28;20017;-61
2023/05/13 00:20:07;;;;;;;6.88;2.17;;;18.40;99.90;;;;;;5020545;28;20120;-61
2023/05/13 00:22:34;;;;;;;12.95;3.33;;;18.60;99.90;;;;;;5047505;28;20029;-61
2023/05/13 00:25:02;;;;;;;9.13;2.30;;;18.60;99.90;;;;;;5037078;28;20030;-61
2023/05/13 00:27:31;;;;;;;8.73;2.50;;;18.80;99.90;;;;;;5019436;28;20044;-62
2023/05/13 00:29:59;;;;;;;5.07;2.40;;;18.90;99.90;;;;;;5038074;28;20053;-62
2023/05/13 00:32:27;;;;;;;4.30;2.30;;;18.90;99.90;;;;;;5038666;28;20035;-63
2023/05/13 00:34:54;;;;;;;6.50;2.40;;;18.90;99.90;;;;;;5036294;28;20144;-62
2023/05/13 00:37:22;;;;;;;6.50;2.90;;;19.00;99.90;;;;;;5041782;28;20100;-62
2023/05/13 00:39:49;;;;;;;7.40;3.45;;;19.10;99.90;;;;;;5042207;28;20024;-62
2023/05/13 00:42:17;;;;;;;7.63;2.35;;;19.20;99.90;;;;;;5046447;28;20392;-63
2023/05/13 00:44:44;;;;;;;10.40;3.22;;;19.30;99.90;;;;;;5042280;28;20036;-64
2023/05/13 00:47:12;;;;;;;5.15;2.45;;;19.40;99.90;;;;;;5040728;28;20128;-65
2023/05/13 00:49:40;;;;;;;6.43;2.10;;;19.50;99.90;;;;;;5044472;28;20086;-64
2023/05/13 00:52:07;;;;;;;4.07;2.00;;;19.60;99.90;;;;;;5047015;28;20031;-64
2023/05/13 00:54:35;;;;;;;6.35;2.85;;;19.80;99.90;;;;;;5046463;28;20078;-64
2023/05/13 00:57:03;;;;;;;54.28;16.23;;;19.90;99.90;;;;;;5040937;28;20104;-64
2023/05/13 00:59:31;;;;;;;8.15;2.90;;;19.90;99.90;;;;;;5044461;28;20032;-64
2023/05/13 01:02:13;;;;;;;4.75;3.03;;;19.80;99.90;;;;;;5044708;28;20021;-64
2023/05/13 01:05:12;;;;;;;13.90;3.03;;;19.90;99.90;;;;;;5045779;28;20085;-64
2023/05/13 01:07:52;;;;;;;8.63;2.83;;;20.00;99.90;;;;;;5035231;28;20029;-63
2023/05/13 01:10:42;;;;;;;5.25;2.60;;;20.10;99.90;;;;;;5027855;28;20077;-62
2023/05/13 01:13:16;;;;;;;7.53;2.70;;;20.10;99.90;;;;;;5041755;28;20017;-62
2023/05/13 01:15:57;;;;;;;6.88;2.55;;;20.10;99.90;;;;;;5017076;28;20112;-63
2023/05/13 01:19:04;;;;;;;3.97;2.35;;;20.10;99.90;;;;;;5038535;28;20072;-64
2023/05/13 01:21:36;;;;;;;5.03;2.28;;;20.10;99.90;;;;;;5043543;28;20021;-63
2023/05/13 01:24:03;;;;;;;9.70;2.40;;;20.10;99.90;;;;;;5044896;28;20378;-63
2023/05/13 01:26:31;;;;;;;4.97;2.83;;;20.20;99.90;;;;;;5041511;28;20490;-63
2023/05/13 01:28:58;;;;;;;7.82;2.78;;;20.30;99.90;;;;;;5045906;28;20041;-63
2023/05/13 01:31:26;;;;;;;4.80;2.63;;;20.40;99.90;;;;;;5029235;28;20466;-62
2023/05/13 01:33:54;;;;;;;7.88;1.80;;;20.40;99.90;;;;;;5045188;28;20068;-62
2023/05/13 01:36:21;;;;;;;5.82;2.00;;;20.50;99.90;;;;;;5039950;28;20112;-62
2023/05/13 01:38:50;;;;;;;5.65;2.38;;;20.50;99.90;;;;;;5046679;28;20029;-63
2023/05/13 01:41:18;;;;;;;5.63;1.67;;;20.50;99.90;;;;;;5012676;28;20032;-62
2023/05/13 01:43:45;;;;;;;6.57;2.30;;;20.60;99.90;;;;;;5024706;28;20083;-62
2023/05/13 01:46:13;;;;;;;7.00;2.20;;;20.70;99.90;;;;;;5060968;28;20024;-63
2023/05/13 01:48:40;;;;;;;4.82;2.00;;;20.70;99.90;;;;;;5044261;28;20420;-62
2023/05/13 01:51:08;;;;;;;5.18;3.08;;;20.70;99.90;;;;;;5030157;28;20061;-62
2023/05/13 01:53:36;;;;;;;5.65;2.42;;;20.70;99.90;;;;;;5033085;28;20032;-62
2023/05/13 01:56:03;;;;;;;5.22;2.10;;;20.70;99.90;;;;;;5046053;28;20021;-62
2023/05/13 01:58:31;;;;;;;4.60;2.13;;;20.90;99.90;;;;;;5051776;28;20020;-62
2023/05/13 02:00:58;;;;;;;5.22;1.88;;;21.20;99.90;;;;;;5061132;28;20033;-63
2023/05/13 02:03:25;;;;;;;5.00;2.40;;;21.50;99.90;;;;;;5024331;28;20029;-63
2023/05/13 02:05:53;;;;;;;6.50;2.00;;;21.80;99.90;;;;;;5034800;28;20033;-63
2023/05/13 02:08:24;;;;;;;4.57;2.13;;;21.90;99.90;;;;;;5043145;28;20049;-62
2023/05/13 02:10:59;;;;;;;5.65;1.95;;;22.20;99.90;;;;;;5053892;28;20377;-62
2023/05/13 02:13:26;;;;;;;7.68;2.13;;;22.30;99.90;;;;;;5046063;28;20138;-63
2023/05/13 02:15:54;;;;;;;6.40;2.33;;;22.60;99.90;;;;;;5044849;28;20033;-63
2023/05/13 02:18:22;;;;;;;6.78;2.25;;;22.80;99.90;;;;;;5036168;28;20091;-63
2023/05/13 02:20:50;;;;;;;5.25;1.63;;;22.70;99.90;;;;;;5047313;28;20500;-63
2023/05/13 02:23:17;;;;;;;5.50;2.25;;;22.60;99.90;;;;;;5049672;28;20499;-63
2023/05/13 02:25:45;;;;;;;6.25;2.33;;;22.50;99.90;;;;;;5031035;28;20029;-61
2023/05/13 02:28:12;;;;;;;4.72;1.70;;;22.40;99.90;;;;;;5026480;28;20028;-62
2023/05/13 02:30:40;;;;;;;6.53;2.00;;;22.50;99.90;;;;;;5048691;28;20060;-62
2023/05/13 02:33:08;;;;;;;3.75;1.83;;;22.70;99.90;;;;;;5044327;28;20082;-63
2023/05/13 02:35:35;;;;;;;6.50;1.80;;;22.80;99.90;;;;;;5032040;28;20076;-63
2023/05/13 02:38:05;;;;;;;2.97;1.80;;;23.10;99.90;;;;;;5027024;28;20025;-63
2023/05/13 02:40:33;;;;;;;3.45;1.70;;;23.30;99.20;;;;;;5027926;28;20036;-63
2023/05/13 02:43:00;;;;;;;5.22;1.85;;;23.40;99.90;;;;;;5042902;28;20021;-63
2023/05/13 02:45:28;;;;;;;3.55;1.63;;;23.50;98.30;;;;;;5043234;28;20040;-62
2023/05/13 02:47:56;;;;;;;3.03;1.52;;;23.50;96.00;;;;;;5023259;28;20057;-64
2023/05/13 02:50:23;;;;;;;12.65;2.58;;;23.20;97.40;;;;;;5037908;28;20565;-62
2023/05/13 02:52:51;;;;;;;10.38;2.25;;;23.10;98.10;;;;;;5037960;28;20486;-63
2023/05/13 02:55:18;;;;;;;6.68;2.05;;;23.00;96.80;;;;;;5040175;28;20532;-64
2023/05/13 02:57:46;;;;;;;4.72;1.90;;;22.90;99.00;;;;;;5044419;28;20080;-61
2023/05/13 03:00:14;;;;;;;4.03;1.65;;;22.60;99.10;;;;;;5036891;28;20025;-63
2023/05/13 03:02:42;;;;;;;3.95;2.00;;;22.20;99.90;;;;;;5039664;28;20775;-66
2023/05/13 03:05:09;;;;;;;2.65;1.40;;;21.60;99.90;;;;;;5034765;28;20394;-63
2023/05/13 03:07:37;;;;;;;5.43;2.55;;;21.10;99.90;;;;;;5036514;28;20040;-62
2023/05/13 03:10:05;;;;;;;4.47;2.00;;;20.70;99.90;;;;;;5041626;28;20034;-62
2023/05/13 03:12:33;;;;;;;5.68;2.05;;;20.40;99.90;;;;;;5025877;28;20381;-63
2023/05/13 03:15:00;;;;;;;3.28;1.48;;;20.10;99.90;;;;;;5039787;28;20040;-62
2023/05/13 03:17:29;;;;;;;4.35;2.10;;;19.90;99.90;;;;;;5026732;28;20025;-63
2023/05/13 03:19:57;;;;;;;2.92;1.73;;;19.80;99.90;;;;;;5046561;28;20040;-63
2023/05/13 03:22:24;;;;;;;7.57;2.17;;;19.50;99.90;;;;;;5028915;28;20029;-61
2023/05/13 03:24:52;;;;;;;4.75;2.25;;;19.40;99.90;;;;;;5048033;28;20445;-61
2023/05/13 03:27:19;;;;;;;6.93;2.17;;;19.40;99.90;;;;;;5049735;28;20025;-62
2023/05/13 03:29:47;;;;;;;6.43;1.98;;;19.30;99.90;;;;;;5034263;28;20044;-63
2023/05/13 03:32:14;;;;;;;5.20;2.15;;;19.40;99.90;;;;;;5031344;28;20026;-62
2023/05/13 03:34:42;;;;;;;12.85;2.67;;;19.50;99.90;;;;;;5046422;28;20514;-62
2023/05/13 03:37:09;;;;;;;6.55;2.35;;;19.60;99.90;;;;;;5047289;28;20071;-61
2023/05/13 03:39:37;;;;;;;4.38;1.92;;;19.80;99.90;;;;;;5019663;28;20030;-60
2023/05/13 03:42:05;;;;;;;6.68;2.05;;;19.90;99.90;;;;;;5049272;28;20025;-61
2023/05/13 03:44:32;;;;;;;6.00;2.15;;;20.10;99.90;;;;;;5048469;28;20029;-61
2023/05/13 03:47:00;;;;;;;3.78;1.88;;;20.30;99.90;;;;;;5046494;28;20722;-60
2023/05/13 03:49:27;;;;;;;9.10;2.17;;;20.40;99.90;;;;;;5047274;28;20083;-62
2023/05/13 03:51:55;;;;;;;10.73;2.47;;;20.40;99.90;;;;;;5043177;28;20060;-61
2023/05/13 03:54:22;;;;;;;5.38;2.10;;;20.40;99.90;;;;;;5037467;28;20021;-61
2023/05/13 03:56:49;;;;;;;8.25;1.75;;;20.10;99.90;;;;;;5028836;28;20116;-62
2023/05/13 03:59:17;;;;;;;6.20;1.85;;;19.70;99.90;;;;;;5040014;28;20075;-63
2023/05/13 04:01:44;;;;;;;3.38;1.83;;;19.60;99.90;;;;;;5040540;28;20100;-64
2023/05/13 04:04:12;;;;;;;5.03;1.92;;;19.40;99.90;;;;;;5018996;28;20033;-62
2023/05/13 04:06:39;;;;;;;3.67;1.95;;;18.70;99.90;;;;;;5043803;28;20109;-64
2023/05/13 04:09:07;;;;;;;5.65;2.60;;;18.30;99.90;;;;;;5068361;28;20397;-63
2023/05/13 04:11:34;;;;;;;9.05;2.55;;;18.00;99.90;;;;;;5051324;28;20017;-62
2023/05/13 04:14:02;;;;;;;7.35;2.60;;;17.90;99.90;;;;;;5037337;28;20041;-63
2023/05/13 04:16:29;;;;;;;10.38;2.75;;;17.80;99.90;;;;;;5037396;28;20025;-64
2023/05/13 04:18:57;;;;;;;7.20;2.97;;;17.70;99.90;;;;;;5022131;28;20098;-64
2023/05/13 04:21:24;;;;;;;4.07;2.67;;;17.60;99.90;;;;;;5042825;28;20112;-65
2023/05/13 04:23:52;;;;;;;7.38;3.30;;;17.60;99.90;;;;;;5049234;28;20505;-67
2023/05/13 04:26:20;;;;;;;5.85;3.03;;;17.60;99.90;;;;;;5023936;28;20124;-63
2023/05/13 04:28:48;;;;;;;8.38;2.97;;;17.40;99.90;;;;;;5034145;28;20044;-65
2023/05/13 04:31:15;;;;;;;9.70;3.80;;;17.20;99.90;;;;;;5020356;28;20037;-65
2023/05/13 04:33:44;;;;;;;10.07;3.85;;;17.10;99.90;;;;;;5040827;28;20544;-65
2023/05/13 04:36:11;;;;;;;7.43;3.13;;;17.00;99.90;;;;;;5040391;28;20029;-63
2023/05/13 04:38:39;;;;;;;6.57;2.97;;;16.90;99.90;;;;;;5041869;28;20508;-63
2023/05/13 04:41:06;;;;;;;7.93;2.30;;;16.90;99.90;;;;;;5038475;28;20576;-63
2023/05/13 04:43:34;;;;;;;6.72;1.90;;;16.60;99.90;;;;;;5034856;28;20021;-63
2023/05/13 04:46:01;;;;;;;8.20;2.60;;;16.40;99.90;;;;;;5042439;28;20418;-65
2023/05/13 04:48:29;;;;;;;4.32;2.47;;;16.20;99.90;;;;;;5042723;28;20595;-64
2023/05/13 04:50:57;;;;;;;6.80;3.05;;;16.10;99.90;;;;;;5040474;28;20029;-62
2023/05/13 04:53:24;;;;;;;15.98;4.20;;;15.90;99.90;;;;;;5044979;28;20023;-64
2023/05/13 04:55:59;;;;;;;12.23;3.33;;;15.80;99.90;;;;;;5042069;28;20047;-62
2023/05/13 04:58:26;;;;;;;;;;;15.40;99.90;;;;;;5044593;28;20111;-62
2023/05/13 05:00:54;;;;;;;10.35;2.85;;;15.20;99.90;;;;;;5044028;28;19909;-61
2023/05/13 05:03:21;;;;;;;7.72;3.40;;;15.00;99.90;;;;;;5040118;28;20022;-62
2023/05/13 05:05:49;;;;;;;5.35;2.75;;;14.80;99.90;;;;;;5037749;28;20363;-63
2023/05/13 05:08:17;;;;;;;6.10;2.88;;;14.70;99.90;;;;;;5040826;28;20576;-63
2023/05/13 05:10:44;;;;;;;6.15;3.13;;;14.60;99.90;;;;;;5039501;28;20031;-61
2023/05/13 05:13:11;;;;;;;12.82;4.32;;;14.50;99.90;;;;;;5045864;28;20553;-60
2023/05/13 05:15:40;;;;;;;8.50;3.38;;;14.50;99.90;;;;;;5047153;28;20032;-60
2023/05/13 05:18:08;;;;;;;7.03;4.93;;;14.60;99.90;;;;;;5047781;28;20024;-61
2023/05/13 05:20:39;;;;;;;11.30;5.78;;;14.60;99.90;;;;;;5028035;28;20421;-61
2023/05/13 05:23:09;;;;;;;10.65;5.45;;;14.70;99.90;;;;;;5039209;28;20035;-61
2023/05/13 05:25:36;;;;;;;9.30;4.25;;;14.70;99.90;;;;;;5031944;28;20104;-60
2023/05/13 05:28:04;;;;;;;8.15;3.75;;;14.80;99.90;;;;;;5042091;28;20049;-58
2023/05/13 05:30:38;;;;;;;9.48;5.30;;;14.80;99.90;;;;;;5040940;28;20029;-60
2023/05/13 05:33:08;;;;;;;9.52;4.68;;;14.90;99.90;;;;;;5038931;28;20033;-61
2023/05/13 05:35:37;;;;;;;8.52;4.28;;;15.00;99.90;;;;;;5038750;28;20633;-61
2023/05/13 05:38:06;;;;;;;9.82;4.80;;;15.00;99.90;;;;;;5024779;28;20028;-58
2023/05/13 05:40:36;;;;;;;12.27;5.18;;;15.00;99.90;;;;;;5043303;28;20043;-61
2023/05/13 05:43:03;;;;;;;5.38;4.13;;;15.00;99.90;;;;;;5024349;28;20552;-60
2023/05/13 05:45:31;;;;;;;4.45;2.95;;;15.00;99.90;;;;;;5040652;28;20106;-62
2023/05/13 05:47:58;;;;;;;7.57;4.25;;;15.00;99.90;;;;;;5047392;28;20371;-61
2023/05/13 05:50:27;;;;;;;5.00;2.60;;;14.80;99.90;;;;;;5047651;28;20041;-61
2023/05/13 05:52:55;;;;;;;5.15;2.60;;;14.60;99.90;;;;;;5045952;28;20506;-59
2023/05/13 05:55:22;;;;;;;3.47;2.25;;;14.50;99.90;;;;;;5050097;28;20037;-60
2023/05/13 05:57:51;;;;;;;5.63;2.55;;;14.40;99.90;;;;;;5046858;28;20029;-60
2023/05/13 06:00:19;;;;;;;6.22;3.17;;;14.30;99.90;;;;;;5047616;28;20033;-62
2023/05/13 06:02:47;;;;;;;7.60;3.40;;;14.30;99.90;;;;;;5028210;28;20148;-61
2023/05/13 06:05:15;;;;;;;3.28;2.47;;;14.30;99.90;;;;;;5041563;28;20085;-61
2023/05/13 06:07:42;;;;;;;6.57;2.72;;;14.30;99.90;;;;;;5030213;28;20035;-60
2023/05/13 06:10:10;;;;;;;10.07;2.63;;;14.10;99.90;;;;;;5042907;28;20508;-60
2023/05/13 06:12:39;;;;;;;5.25;2.85;;;14.10;99.90;;;;;;5046283;28;20021;-60
2023/05/13 06:15:11;;;;;;;3.22;2.50;;;14.10;99.90;;;;;;5046066;28;20413;-60
2023/05/13 06:17:38;;;;;;;5.18;2.42;;;14.10;99.90;;;;;;5042935;28;20033;-60
2023/05/13 06:20:06;;;;;;;5.97;2.65;;;14.10;99.90;;;;;;5045932;28;20029;-59
2023/05/13 06:22:34;;;;;;;3.92;2.33;;;14.10;99.90;;;;;;5049039;28;20028;-60
2023/05/13 06:25:02;;;;;;;8.00;2.72;;;14.00;99.90;;;;;;5029964;28;20053;-60
2023/05/13 06:27:29;;;;;;;4.35;2.35;;;14.00;99.90;;;;;;5036960;28;20087;-60
2023/05/13 06:29:57;;;;;;;4.32;2.92;;;13.90;99.90;;;;;;5034030;28;20034;-62
2023/05/13 06:32:24;;;;;;;4.90;2.53;;;13.90;99.90;;;;;;5029154;28;20066;-60
2023/05/13 06:34:52;;;;;;;6.40;2.67;;;13.90;99.90;;;;;;5028562;28;20036;-59
2023/05/13 06:37:19;;;;;;;5.45;2.22;;;13.90;99.90;;;;;;5043539;28;20788;-60
2023/05/13 06:39:47;;;;;;;4.63;2.50;;;13.90;99.90;;;;;;5042048;28;20031;-60
2023/05/13 06:42:14;;;;;;;4.18;2.58;;;13.90;99.90;;;;;;5040020;28;20048;-60
2023/05/13 06:44:42;;;;;;;3.00;1.85;;;13.90;99.90;;;;;;5027158;28;20036;-59
2023/05/13 06:47:14;;;;;;;4.65;2.38;;;13.90;99.90;;;;;;5022216;28;20036;-60
2023/05/13 06:49:42;;;;;;;2.90;1.80;;;13.90;99.90;;;;;;5028349;28;20133;-60
2023/05/13 06:52:10;;;;;;;5.07;2.10;;;14.00;99.90;;;;;;5036107;28;20075;-59
2023/05/13 06:54:38;;;;;;;3.65;2.08;;;13.90;99.90;;;;;;5042620;28;20501;-58
2023/05/13 06:57:06;;;;;;;6.90;2.42;;;13.90;99.90;;;;;;5047633;28;20743;-60
2023/05/13 06:59:34;;;;;;;7.07;2.75;;;13.90;99.90;;;;;;5045938;28;20386;-60
2023/05/13 07:02:02;;;;;;;6.25;2.60;;;13.80;99.90;;;;;;5043411;28;20024;-60
2023/05/13 07:04:29;;;;;;;9.18;3.20;;;13.70;99.90;;;;;;5027668;28;20033;-62
2023/05/13 07:06:57;;;;;;;7.95;2.47;;;13.70;99.90;;;;;;5047059;28;20029;-64
2023/05/13 07:09:24;;;;;;;8.50;2.25;;;13.50;99.90;;;;;;5029829;28;20029;-61
2023/05/13 07:11:52;;;;;;;5.53;3.13;;;13.40;99.90;;;;;;5033343;28;20043;-60
2023/05/13 07:14:20;;;;;;;6.00;2.03;;;13.30;99.90;;;;;;5008800;28;20398;-60
2023/05/13 07:16:47;;;;;;;4.45;2.70;;;13.30;99.90;;;;;;5035129;28;20301;-59
2023/05/13 07:19:15;;;;;;;7.10;2.83;;;13.20;99.90;;;;;;5045797;28;20033;-59
2023/05/13 07:21:42;;;;;;;4.07;2.72;;;13.20;99.90;;;;;;5028632;28;20025;-59
2023/05/13 07:24:10;;;;;;;7.25;2.63;;;13.20;99.90;;;;;;5030259;28;20720;-59
2023/05/13 07:26:38;;;;;;;6.45;3.00;;;13.20;99.90;;;;;;5041964;28;20023;-60
2023/05/13 07:29:06;;;;;;;8.13;3.00;;;13.20;99.90;;;;;;5029507;28;20038;-60
2023/05/13 07:31:33;;;;;;;5.63;2.50;;;13.20;99.90;;;;;;5040670;28;20130;-60
2023/05/13 07:34:01;;;;;;;8.50;3.53;;;13.20;99.90;;;;;;5045590;28;20115;-60
2023/05/13 07:36:28;;;;;;;4.93;2.45;;;13.30;99.90;;;;;;5029169;28;20033;-61
2023/05/13 07:38:56;;;;;;;3.88;2.47;;;13.30;99.90;;;;;;5026452;28;20464;-59
2023/05/13 07:41:23;;;;;;;6.43;2.60;;;13.30;99.90;;;;;;5040422;28;20022;-60
2023/05/13 07:43:51;;;;;;;5.53;2.47;;;13.40;99.90;;;;;;5045999;28;20119;-60
2023/05/13 07:46:18;;;;;;;4.95;2.90;;;13.40;99.90;;;;;;5011585;28;20024;-60
2023/05/13 07:48:47;;;;;;;5.97;2.47;;;13.50;99.90;;;;;;5067795;28;20040;-60
2023/05/13 07:51:17;;;;;;;7.25;3.30;;;13.50;99.90;;;;;;5053804;28;20059;-60
2023/05/13 07:53:45;;;;;;;8.43;2.78;;;13.60;99.90;;;;;;5037319;28;20678;-59
2023/05/13 07:56:13;;;;;;;6.90;2.75;;;13.70;99.90;;;;;;5022796;28;20482;-61
2023/05/13 07:58:41;;;;;;;5.28;2.83;;;13.70;99.90;;;;;;5041963;28;20520;-59
2023/05/13 08:01:08;;;;;;;4.63;2.60;;;13.80;99.90;;;;;;5039758;28;20036;-60
2023/05/13 08:03:35;;;;;;;4.30;2.60;;;13.80;99.90;;;;;;5035448;28;20541;-60
2023/05/13 08:06:03;;;;;;;8.70;2.90;;;13.90;99.90;;;;;;5027989;28;20140;-60
2023/05/13 08:08:30;;;;;;;5.40;3.78;;;13.90;99.90;;;;;;5045605;28;20060;-60
2023/05/13 08:10:58;;;;;;;4.13;2.83;;;14.00;99.90;;;;;;5046897;28;20033;-59
2023/05/13 08:13:25;;;;;;;4.50;3.00;;;13.90;99.90;;;;;;5015875;28;20033;-60
2023/05/13 08:15:53;;;;;;;5.80;2.35;;;13.90;99.90;;;;;;5033446;28;20033;-60
2023/05/13 08:18:20;;;;;;;6.90;2.88;;;14.00;99.90;;;;;;5031803;28;20033;-60
2023/05/13 08:20:48;;;;;;;8.70;3.00;;;14.00;99.90;;;;;;5037699;28;20661;-62
2023/05/13 08:23:16;;;;;;;9.50;3.45;;;14.00;99.90;;;;;;5031983;28;20029;-60
2023/05/13 08:25:43;;;;;;;9.13;2.63;;;14.00;99.90;;;;;;5043706;28;20054;-60
2023/05/13 08:28:10;;;;;;;5.65;2.90;;;14.00;99.90;;;;;;5043302;28;20027;-60
2023/05/13 08:30:42;;;;;;;7.10;3.08;;;14.00;99.90;;;;;;5046675;28;20403;-60
2023/05/13 08:33:10;;;;;;;4.95;2.63;;;14.10;99.90;;;;;;5045456;28;20070;-60
2023/05/13 08:35:38;;;;;;;9.32;4.25;;;14.10;99.90;;;;;;5028522;28;20035;-60
2023/05/13 08:38:05;;;;;;;5.70;2.58;;;14.10;99.90;;;;;;5042243;28;20031;-61
2023/05/13 08:40:33;;;;;;;6.28;3.08;;;14.00;99.90;;;;;;5046293;28;20505;-60
2023/05/13 08:43:03;;;;;;;8.13;3.70;;;14.00;99.90;;;;;;5044262;28;20032;-61
2023/05/13 08:45:34;;;;;;;6.70;3.60;;;14.10;99.90;;;;;;5026562;28;20100;-61
2023/05/13 08:48:02;;;;;;;7.13;3.88;;;14.00;99.90;;;;;;5005325;28;20045;-60
2023/05/13 08:50:30;;;;;;;5.93;3.67;;;14.00;99.90;;;;;;5017017;28;20034;-58
2023/05/13 08:53:01;;;;;;;10.05;4.05;;;14.00;99.90;;;;;;5019459;28;20021;-60
2023/05/13 08:55:28;;;;;;;8.95;5.38;;;14.00;99.90;;;;;;5024375;28;20120;-61
2023/05/13 08:57:56;;;;;;;7.68;4.88;;;14.10;99.90;;;;;;5018720;28;20025;-61
2023/05/13 09:00:25;;;;;;;7.18;5.15;;;14.10;99.90;;;;;;5027643;28;20026;-62
2023/05/13 09:02:53;;;;;;;11.10;6.03;;;14.10;99.90;;;;;;5024549;28;20033;-63
2023/05/13 09:05:21;;;;;;;9.32;5.28;;;14.10;99.90;;;;;;5024664;28;20068;-62
2023/05/13 09:07:48;;;;;;;10.10;6.20;;;14.10;99.90;;;;;;5018348;28;21606;-62
2023/05/13 09:10:18;;;;;;;8.57;5.28;;;14.00;99.90;;;;;;5021288;28;20061;-54
2023/05/13 09:12:55;;;;;;;8.80;6.13;;;13.90;99.90;;;;;;5016202;28;20017;-53
2023/05/13 09:15:25;;;;;;;8.77;4.88;;;13.80;99.90;;;;;;5028987;28;20028;-61
2023/05/13 09:17:58;;;;;;;11.85;4.95;;;13.60;99.90;;;;;;5011798;28;20030;-60
2023/05/13 09:20:27;;;;;;;10.70;5.22;;;13.60;99.90;;;;;;5008332;28;20022;-61
2023/05/13 09:23:06;;;;;;;6.78;4.40;;;13.60;99.90;;;;;;5020074;28;20056;-60
2023/05/13 09:25:34;;;;;;;11.15;5.65;;;13.50;99.90;;;;;;5024031;28;20028;-60
2023/05/13 09:28:03;;;;;;;8.25;5.68;;;13.50;99.90;;;;;;5028160;28;20043;-61
2023/05/13 09:30:40;;;;;;;16.02;8.43;;;13.50;99.90;;;;;;5021620;28;20454;-60
2023/05/13 09:33:14;;;;;;;18.15;9.07;;;13.50;99.90;;;;;;5045766;28;20030;-61
2023/05/13 09:36:04;;;;;;;16.38;11.52;;;13.50;99.90;;;;;;5018605;28;20504;-61
2023/05/13 09:38:36;;;;;;;16.60;10.15;;;13.40;99.90;;;;;;5016574;28;20034;-60
2023/05/13 09:41:03;;;;;;;13.43;10.43;;;13.40;99.90;;;;;;5013450;28;20026;-60
2023/05/13 09:43:34;;;;;;;13.52;10.25;;;13.30;99.90;;;;;;5009028;28;20026;-61
2023/05/13 09:46:03;;;;;;;15.82;10.40;;;13.30;99.90;;;;;;5019198;28;20029;-60
2023/05/13 09:48:33;;;;;;;15.38;10.43;;;13.30;99.90;;;;;;5032649;28;20575;-60
2023/05/13 09:51:00;;;;;;;17.60;11.18;;;13.20;99.90;;;;;;5054122;28;20032;-61
2023/05/13 09:53:28;;;;;;;19.13;11.57;;;13.20;99.90;;;;;;5050999;28;20028;-60
2023/05/13 09:55:58;;;;;;;17.77;12.52;;;13.20;99.90;;;;;;5041725;28;20364;-60
2023/05/13 09:58:29;;;;;;;27.02;14.55;;;13.20;99.90;;;;;;5044814;28;20408;-60
2023/05/13 10:00:57;;;;;;;19.27;12.27;;;13.10;99.90;;;;;;5033309;28;20040;-62
2023/05/13 10:03:27;;;;;;;22.48;13.15;;;13.10;99.90;;;;;;5014273;28;20040;-61
2023/05/13 10:05:56;;;;;;;20.02;13.90;;;13.10;99.90;;;;;;5039927;28;20040;-60
2023/05/13 10:08:24;;;;;;;20.83;14.85;;;13.10;99.90;;;;;;5051798;28;20083;-60
2023/05/13 10:10:54;;;;;;;27.17;14.60;;;13.10;99.90;;;;;;5033835;28;20075;-61
2023/05/13 10:13:24;;;;;;;23.55;15.10;;;13.10;99.90;;;;;;5033685;28;20487;-61
2023/05/13 10:15:54;;;;;;;26.85;17.40;;;13.10;99.90;;;;;;5028430;28;20047;-60
2023/05/13 10:18:23;;;;;;;27.77;19.33;;;13.10;99.90;;;;;;5031778;28;20157;-61
2023/05/13 10:20:54;;;;;;;29.75;17.02;;;13.00;99.90;;;;;;5013900;28;20047;-61
2023/05/13 10:23:22;;;;;;;27.33;17.27;;;13.00;99.90;;;;;;5031938;28;20053;-61
2023/05/13 10:25:57;;;;;;;27.05;18.42;;;13.00;99.90;;;;;;5033479;28;20025;-61
2023/05/13 10:28:27;;;;;;;29.70;18.58;;;13.00;99.90;;;;;;5032055;28;20021;-61
2023/05/13 10:30:54;;;;;;;27.60;18.05;;;13.00;99.90;;;;;;5051743;28;20116;-61
2023/05/13 10:33:22;;;;;;;29.70;20.30;;;13.00;99.90;;;;;;5032192;28;20024;-60
2023/05/13 10:36:18;;;;;;;33.65;20.20;;;13.00;99.90;;;;;;5033169;28;20728;-61
2023/05/13 10:38:54;;;;;;;30.73;19.88;;;13.00;99.90;;;;;;5051509;28;20474;-61
2023/05/13 10:41:58;;;;;;;28.27;19.85;;;13.00;99.90;;;;;;5036810;28;20108;-61
2023/05/13 10:44:26;;;;;;;28.75;19.58;;;13.00;99.90;;;;;;5031889;28;20049;-61
2023/05/13 10:46:56;;;;;;;30.95;20.13;;;13.00;99.90;;;;;;5031372;28;20026;-60
2023/05/13 10:49:32;;;;;;;29.65;20.05;;;12.90;99.90;;;;;;5019569;28;20906;-60
2023/05/13 10:52:13;;;;;;;31.08;19.10;;;12.90;99.90;;;;;;5017645;28;20041;-61
2023/05/13 10:54:41;;;;;;;31.85;19.33;;;12.90;99.90;;;;;;5030804;28;20022;-61
2023/05/13 10:57:09;;;;;;;29.65;20.00;;;13.00;99.90;;;;;;5021968;28;20063;-61
2023/05/13 10:59:57;;;;;;;33.15;21.20;;;13.00;99.90;;;;;;5032560;28;20025;-61
2023/05/13 11:02:24;;;;;;;34.42;20.13;;;13.00;99.90;;;;;;5033163;28;20037;-61
2023/05/13 11:05:01;;;;;;;30.13;20.08;;;13.00;99.90;;;;;;5013087;28;20116;-61
2023/05/13 11:07:32;;;;;;;34.63;21.50;;;13.10;99.90;;;;;;5013482;28;20061;-61
2023/05/13 11:10:00;;;;;;;32.65;21.00;;;13.20;99.90;;;;;;5031021;28;20030;-62
2023/05/13 11:12:27;;;;;;;37.15;23.98;;;13.20;99.90;;;;;;5031224;28;20041;-61
2023/05/13 11:14:57;;;;;;;32.60;20.83;;;13.30;99.90;;;;;;5031695;28;20032;-60
2023/05/13 11:17:25;;;;;;;31.23;20.60;;;13.30;99.90;;;;;;5051115;28;20036;-60
2023/05/13 11:19:53;;;;;;;28.05;19.05;;;13.40;99.90;;;;;;5032624;28;20112;-61
2023/05/13 11:22:26;;;;;;;29.95;18.45;;;13.40;99.90;;;;;;5050365;28;20057;-61
2023/05/13 11:25:08;;;;;;;25.17;17.35;;;13.40;99.90;;;;;;5032317;28;20021;-61
2023/05/13 11:27:41;;;;;;;28.77;18.85;;;13.40;99.90;;;;;;5022719;28;20024;-61
2023/05/13 11:30:27;;;;;;;31.95;20.85;;;13.40;99.90;;;;;;5050353;28;20036;-61
2023/05/13 11:32:56;;;;;;;30.00;19.35;;;13.40;99.90;;;;;;5032704;28;20029;-60
2023/05/13 11:35:28;;;;;;;29.25;19.73;;;13.40;99.90;;;;;;5050375;28;20191;-59
2023/05/13 11:37:57;;;;;;;30.10;18.45;;;13.50;99.90;;;;;;5039648;28;20096;-60
2023/05/13 11:40:28;;;;;;;29.63;19.75;;;13.50;99.90;;;;;;5030680;28;20025;-61
2023/05/13 11:42:57;;;;;;;33.45;18.50;;;13.50;99.90;;;;;;5030799;28;20034;-62
2023/05/13 11:45:26;;;;;;;28.40;18.17;;;13.50;99.90;;;;;;5030160;28;20052;-62
2023/05/13 11:47:55;;;;;;;29.92;20.10;;;13.50;99.90;;;;;;5030059;28;20042;-60
2023/05/13 11:50:31;;;;;;;26.50;18.38;;;13.50;99.90;;;;;;5025765;28;20447;-64
2023/05/13 11:53:00;;;;;;;30.90;17.45;;;13.50;99.90;;;;;;5050522;28;20060;-61
2023/05/13 11:55:35;;;;;;;23.55;16.63;;;13.50;99.90;;;;;;5050284;28;20017;-61
2023/05/13 11:58:03;;;;;;;26.63;17.30;;;13.50;99.90;;;;;;5049610;28;20032;-61
2023/05/13 12:00:31;;;;;;;32.42;18.25;;;13.50;99.90;;;;;;5049983;28;20543;-61
2023/05/13 12:03:00;;;;;;;27.00;17.67;;;13.50;99.90;;;;;;5050230;28;20505;-61
2023/05/13 12:05:27;;;;;;;29.45;18.83;;;13.50;99.90;;;;;;5050106;28;20025;-61
2023/05/13 12:07:58;;;;;;;26.25;17.27;;;13.40;99.90;;;;;;5042965;28;20075;-60
2023/05/13 12:10:26;;;;;;;28.05;17.88;;;13.40;99.90;;;;;;5030247;28;20037;-60
2023/05/13 12:12:55;;;;;;;23.65;17.23;;;13.40;99.90;;;;;;5030028;28;20117;-60
2023/05/13 12:15:22;;;;;;;27.98;17.77;;;13.40;99.90;;;;;;5029589;28;20057;-60
2023/05/13 12:17:50;;;;;;;24.67;16.98;;;13.40;99.90;;;;;;5040563;28;20029;-59
2023/05/13 12:20:24;;;;;;;26.13;17.30;;;13.40;99.90;;;;;;5040059;28;20091;-60
2023/05/13 12:22:55;;;;;;;25.17;16.30;;;13.40;99.90;;;;;;5029555;28;20021;-61
2023/05/13 12:25:42;;;;;;;24.13;15.63;;;13.30;99.90;;;;;;5011627;28;20037;-61
2023/05/13 12:28:18;;;;;;;30.08;15.43;;;13.30;99.90;;;;;;5014203;28;20076;-60
2023/05/13 12:31:04;;;;;;;22.63;15.38;;;13.30;99.90;;;;;;5030885;28;20028;-60
2023/05/13 12:33:33;;;;;;;25.45;13.90;;;13.40;99.90;;;;;;5049285;28;20028;-60
2023/05/13 12:36:36;;;;;;;23.85;13.80;;;13.30;99.90;;;;;;5048950;28;20028;-60
2023/05/13 12:39:10;;;;;;;20.30;14.07;;;13.30;99.90;;;;;;5029352;28;20108;-60
2023/05/13 12:41:38;;;;;;;;;;;13.30;99.90;;;;;;5029614;28;20025;-60
2023/05/13 12:44:15;;;;;;;23.50;14.13;;;13.30;99.90;;;;;;5029247;28;19909;-61
2023/05/13 12:47:00;;;;;;;21.63;12.80;;;13.30;99.90;;;;;;5029120;28;20033;-61
2023/05/13 12:49:28;;;;;;;18.95;13.73;;;13.30;99.90;;;;;;5034140;28;20465;-60
2023/05/13 12:51:56;;;;;;;27.05;13.73;;;13.30;99.90;;;;;;5049077;28;20039;-61